Tiempo atmosférico en la estación meteorológica de San Sebastián De La Gomera, Santa Cruz de Tenerife (15 m.)



Fecha
DESCASC
Temp. máxima en grados centígrados (hora)
DESCASC
Temp. mínima en grados centígrados (hora)
DESCASC
Temp. media en grados centígrados
DESCASC
Racha de viento máxima en m/sg (hora)
DESCASC
Velocidad máxima media en intervalos de 10 minutos(hora)
DESCASC
Precipitaciones diarias en mm
DESCASC
Precipitaciones de 00:00 a 06:00 en mm
DESCASC
Precipitaciones de 06:00 a 12:00 en mm
DESCASC
Precipitaciones de 12:00 a 18:00 en mm
DESCASC
Precipitaciones de 18:00 a 24:00 en mm
DESCASC
16-01-2020 22.3 (11:30) 14.3 (07:00) 18.3 5.28 (07:10) 3.33 (04:50) 0 0 0 0 0
15-01-2020 20.7 (13:40) 14.6 (03:50) 17.7 7.22 (12:10) 4.17 (12:20) 0 0 0 0 0
14-01-2020 20.5 (14:50) 15.5 (03:50) 18 8.89 (08:20) 6.67 (11:40) 0 0 0 0 0
13-01-2020 21.8 (14:40) 15 (07:40) 18.4 7.22 (20:40) 4.72 (22:40) 0 0 0 0 0
12-01-2020 21.7 (11:30) 17.3 (23:59) 19.5 11.94 (06:00) 5 (06:50) 0 0 0 0 0
11-01-2020 21.6 (13:50) 17.7 (00:00) 19.7 14.17 (06:30) 5.83 (06:30) 0 0 0 0 0
10-01-2020 21.7 (12:30) 18.3 (00:00) 20 15.28 (02:50) 7.22 (03:10) 0 0 0 0 0
09-01-2020 21.3 (14:40) 17.8 (00:00) 19.5 19.44 (21:40) 9.72 (21:40) 0 0 0 0 0
08-01-2020 21.8 (13:10) 17.2 (00:00) 19.5 13.06 (22:10) 6.11 (15:30) 0 0 0 0 0
07-01-2020 22.3 (12:20) 17.7 (00:00) 20 16.67 (03:20) 6.94 (00:30) 0 0 0 0 0
06-01-2020 22.3 (13:20) 17.4 (00:00) 19.8 15.56 (13:30) 6.39 (21:50) 0 0 0 0 0
05-01-2020 22.2 (12:30) 15 (00:00) 18.6 10.83 (11:40) 5 (17:10) 0 0 0 0 0
04-01-2020 22.3 (10:40) 15.1 (00:00) 18.7 8.89 (15:50) 4.17 (11:30) 0 0 0 0 0
03-01-2020 20.7 (14:20) 14.9 (00:00) 17.8 10.28 (10:40) 5.56 (10:10) 0 0 0 0 0
02-01-2020 20.2 (13:00) 15.8 (00:00) 18 10 (06:40) 5.28 (06:40) 0 0 0 0 0
01-01-2020 21.2 (12:50) 15.9 (00:00) 18.6 10 (11:20) 5.83 (06:10) 0 0 0 0 0
31-12-2019 23.2 (13:50) 15.7 (00:00) 19.5 9.17 (11:10) 5.28 (10:50) 0 0 0 0 0
30-12-2019 26.3 (11:20) 17.1 (00:00) 21.7 12.78 (08:50) 3.61 (03:50) 0 0 0 0 0
29-12-2019 25.3 (11:30) 18.3 (00:00) 21.8 8.61 (10:30) 3.61 (03:30) 0 0 0 0 0
28-12-2019 25.7 (11:40) 17.2 (00:00) 21.5 7.5 (12:30) 3.89 (05:30) 0 0 0 0 0
27-12-2019 26.6 (12:40) 16.4 (00:00) 21.5 6.94 (15:30) 4.17 (16:00) 0 0 0 0 0
26-12-2019 26.7 (14:40) 17.9 (00:00) 22.3 6.39 (12:00) 4.44 (12:10) 0 0 0 0 0
25-12-2019 27.3 (10:50) 17.6 (00:00) 22.4 9.72 (14:10) 6.11 (14:10) 0 0 0 0 0
24-12-2019 26.4 (11:40) 17.6 (23:50) 22 8.61 (14:50) 4.17 (14:00) 0 0 0 0 0
23-12-2019 22 (15:30) 17 (00:00) 19.5 6.67 (13:20) 5.28 (13:20) 0 0 0 0 0
22-12-2019 23.6 (13:00) 17.6 (05:50) 20.6 9.72 (14:30) 4.72 (20:10) 0 0 0 0 0
21-12-2019 23.7 (12:40) 15.6 (07:20) 19.7 10.28 (22:00) 5.28 (20:50) 0 0 0 0 0
20-12-2019 22.3 (14:00) 15.9 (00:00) 19.1 6.39 (15:50) 4.17 (15:50) 0 0 0 0 0

Gráficas

Temp. máximas Temp. mínimas Temp. medias Precipitaciones Rachas de viento máximas Velocidades máximas media en intervalos de 10 minutos

Datos horarios

Fecha y hora oficial Temperatura (ºC) Velocidad del viento (km/h) Dirección del viento Racha (km/h) Dirección de racha Precipitación (mm) Presión (hPa) Tendencia (hPa) Humedad (%)
2020-01-18 23:00:00 16.5 7 Noroeste 12 Noroeste 0 1025.1 0.4 50
2020-01-18 22:00:00 17.2 6 Noroeste 13 Noroeste 0 1024.9 0.3 52
2020-01-18 21:00:00 17.8 4 Noroeste 9 Noroeste 0 1025 0.3 53
2020-01-18 20:00:00 19 4 Norte 12 Noroeste 0 1024.7 -0.3 57
2020-01-18 19:00:00 20.3 0 Calma 7 Nordeste 0 1024.6 -0.7 65
2020-01-18 18:00:00 20.7 6 Sur 14 Sur 0 1024.7 -0.8 62
2020-01-18 17:00:00 21.6 6 Sur 18 Sur 0 1025 -1.2 63
2020-01-18 16:00:00 22.3 5 Sur 19 Sudoeste 0 1025.3 -1.9 58
2020-01-18 15:00:00 21.8 6 Sur 13 Sur 0 1025.5 -2.5 61
2020-01-18 14:00:00 21.7 7 Sur 15 Sur 0 1026.2 -2.4 56
2020-01-18 13:00:00 22.3 6 Sur 20 Sudeste 0 1027.2 -1.1 51
2020-01-18 12:00:00 23.2 0 Calma 15 Sur 0 1028 0.5 48
2020-01-18 11:00:00 21.5 7 Sur 18 Sur 0 1028.6 1.8 47
2020-01-18 10:00:00 21.3 8 Sur 15 Norte 0 1028.3 2.4 43
2020-01-18 09:00:00 18.4 8 Noroeste 16 Noroeste 0 1027.5 2 39
2020-01-18 08:00:00 17.3 8 Norte 18 Norte 0 1026.8 1.5 39
2020-01-18 07:00:00 17.2 9 Noroeste 14 Noroeste 0 1025.9 0.2 38
2020-01-18 06:00:00 17.7 6 Norte 17 Noroeste 0 1025.5 -0.4 37
2020-01-18 05:00:00 17.6 8 Noroeste 18 Noroeste 0 1025.3 -1.1 37
2020-01-18 04:00:00 18.2 9 Noroeste 21 Noroeste 0 1025.7 -1.1 38
2020-01-18 03:00:00 16.8 10 Noroeste 18 Noroeste 0 1025.9 -1.2 43
2020-01-18 02:00:00 16.5 5 Noroeste 10 Noroeste 0 1026.4 -0.9 45
2020-01-18 01:00:00 17.8 4 Noroeste 27 Noroeste 0 1026.8 0 43
2020-01-18 00:00:00 17.8 12 Noroeste 21 Noroeste 0 1027.1 0.6 46
2020-01-17 23:00:00 19.2 8 Norte 25 Norte 0 1027.3 1 47
2020-01-17 22:00:00 18.5 6 Norte 16 Norte 0 1026.8 1.4 52
2020-01-17 21:00:00 16.8 7 Noroeste 14 Noroeste 0 1026.5 1.3 61
2020-01-17 20:00:00 17.1 5 Noroeste 8 Norte 0 1026.3 1 74
2020-01-17 19:00:00 18.6 2 Sudeste 12 Sur 0 1025.4 -0.1 79
2020-01-17 18:00:00 18.9 8 Sur 13 Sur 0 1025.2 -0.7 77
2020-01-17 17:00:00 20 7 Sur 13 Sur 0 1025.3 -1.2 69
2020-01-17 16:00:00 20.2 8 Sur 15 Sur 0 1025.5 -1.8 65
2020-01-17 15:00:00 20.2 10 Sur 19 Sur 0 1025.9 -2 65
2020-01-17 14:00:00 20.2 14 Sur 22 Sur 0 1026.5 -1.4 63
2020-01-17 13:00:00 20.6 12 Sur 24 Sur 0 1027.3 0 56
2020-01-17 12:00:00 21.6 8 Sur 23 Sur 0 1027.9 1.2 44
2020-01-17 11:00:00 21.4 8 Sudoeste 22 Sudoeste 0 1027.9 1.7 46
2020-01-17 10:00:00 20.1 3 Sudeste 14 Sur 0 1027.3 1.5 48
2020-01-17 09:00:00 15.6 6 Norte 14 Noroeste 0 1026.7 1.3 47
2020-01-17 08:00:00 14.9 7 Noroeste 14 Noroeste 0 1026.2 0.8 46
2020-01-17 07:00:00 16.1 8 Norte 19 Noroeste 0 1025.8 0.4 45
2020-01-17 06:00:00 15.6 10 Noroeste 20 Noroeste 0 1025.4 -0.1 44
2020-01-17 05:00:00 14.6 10 Noroeste 17 Noroeste 0 1025.4 0.1 46
2020-01-17 04:00:00 14.5 10 Noroeste 16 Noroeste 0 1025.4 -0.4 47
2020-01-17 03:00:00 15 11 Noroeste 15 Noroeste 0 1025.5 -0.7 48
2020-01-17 02:00:00 15.7 7 Noroeste 12 Norte 0 1025.3 -1.1 48
2020-01-17 01:00:00 16.6 7 Norte 12 Noroeste 0 1025.8 -0.3 50
2020-01-17 00:00:00 16.1 8 Noroeste 14 Noroeste 0 1026.2 0.5 57
2020-01-16 23:00:00 15.8 9 Noroeste 14 Noroeste 0 1026.4 1.1 63
2020-01-16 22:00:00 16.4 8 Norte 15 Noroeste 0 1026.1 1.5 67
2020-01-16 21:00:00 16.9 8 Noroeste 15 Noroeste 0 1025.7 1.3 72
2020-01-16 20:00:00 17.5 7 Noroeste 12 Noroeste 0 1025.3 1.1 77
2020-01-16 19:00:00 19 0 Calma 8 Sur 0 1024.6 0.7 74
2020-01-16 18:00:00 19.9 2 Sudeste 10 Sudeste 0 1024.4 0.6 73
2020-01-16 17:00:00 21.1 5 Sudeste 12 Sudeste 0 1024.2 0.3 69
2020-01-16 16:00:00 21.4 3 Sudeste 14 Sudeste 0 1023.9 -0.6 68
2020-01-16 15:00:00 21.5 6 Sudeste 13 Sur 0 1023.8 -1.4 62
2020-01-16 14:00:00 21.2 7 Sudeste 11 Sur 0 1023.9 -1.4 55
2020-01-16 13:00:00 21.2 7 Sur 10 Sur 0 1024.5 -0.1 50
2020-01-16 12:00:00 22.2 3 Sur 6 Sur 0 1025.2 1 48
2020-01-16 11:00:00 21.3 2 Sur 9 Noroeste 0 1025.3 1.9 50
2020-01-16 10:00:00 18.6 6 Norte 17 Noroeste 0 1024.6 2.4 48
2020-01-16 09:00:00 15.6 9 Noroeste 18 Noroeste 0 1024.2 2.2 50
2020-01-16 08:00:00 15.2 8 Noroeste 19 Noroeste 0 1023.4 1.4 49
2020-01-16 07:00:00 14.6 8 Noroeste 16 Noroeste 0 1022.2 0.2 50
2020-01-16 06:00:00 14.7 10 Noroeste 18 Noroeste 0 1022 0 50
2020-01-16 05:00:00 15 11 Noroeste 18 Noroeste 0 1022 -0.1 50
2020-01-16 04:00:00 15 9 Noroeste 18 Noroeste 0 1022 -0.4 53
2020-01-16 03:00:00 15.3 9 Noroeste 18 Noroeste 0 1022 -0.4 55
2020-01-16 02:00:00 15.4 10 Noroeste 17 Noroeste 0 1022.1 -0.2 56
2020-01-16 01:00:00 15.7 6 Noroeste 15 Nordeste 0 1022.4 0.4 62
2020-01-16 00:00:00 15.7 6 Noroeste 14 Noroeste 0 1022.4 0.7 67
2020-01-15 23:00:00 16 8 Noroeste 14 Noroeste 0 1022.3 1.2 68
2020-01-15 22:00:00 16.4 8 Norte 14 Norte 0 1022 1.5 66
2020-01-15 21:00:00 16.9 4 Norte 12 Sudeste 0 1021.7 1.6 71
2020-01-15 20:00:00 18.8 8 Sur 14 Sur 0 1021.1 1.1 71
2020-01-15 19:00:00 18.9 7 Sur 16 Sur 0 1020.5 0.6 74
2020-01-15 18:00:00 19.2 10 Sur 15 Sur 0 1020.1 -0.1 71
2020-01-15 17:00:00 20.1 9 Sudeste 17 Sudeste 0 1020 -0.6 68
2020-01-15 16:00:00 20.3 11 Sudeste 16 Sur 0 1019.9 -0.8 67
2020-01-15 15:00:00 20.4 10 Sudeste 17 Sudeste 0 1020.2 -1.3 70
2020-01-15 14:00:00 20.4 12 Sudeste 22 Sudeste 0 1020.6 -1.1 73
2020-01-15 13:00:00 20.3 12 Sudeste 26 Sudeste 0 1020.7 -0.5 75
2020-01-15 12:00:00 20 14 Sudeste 24 Sudeste 0 1021.5 0.5 76
2020-01-15 11:00:00 19.6 12 Sudeste 23 Sudeste 0 1021.7 1.1 71
2020-01-15 10:00:00 19 4 Sudeste 17 Noroeste 0 1021.2 1.3 68
2020-01-15 09:00:00 15.8 5 Norte 20 Noroeste 0 1021 1.7 78
2020-01-15 08:00:00 14.9 9 Noroeste 17 Noroeste 0 1020.6 1.2 80
2020-01-15 07:00:00 15 7 Norte 17 Norte 0 1019.9 0.1 79
2020-01-15 06:00:00 14.8 9 Noroeste 18 Noroeste 0 1019.3 -0.2 77
2020-01-15 05:00:00 14.9 9 Noroeste 16 Noroeste 0 1019.4 -0.6 73
2020-01-15 04:00:00 14.8 8 Norte 17 Noroeste 0 1019.8 -0.2 68
2020-01-15 03:00:00 14.9 7 Noroeste 15 Noroeste 0 1019.5 -0.8 75
2020-01-15 02:00:00 15.2 7 Norte 14 Noroeste 0 1020 0 74
2020-01-15 01:00:00 15.6 5 Norte 14 Norte 0 1020 0.2 72
2020-01-15 00:00:00 15.8 6 Norte 15 Noroeste 0 1020.3 1.4 68
2020-01-14 23:00:00 16.1 6 Norte 18 Noroeste 0 1020 1.1 68
2020-01-14 22:00:00 16.6 3 Norte 11 Noroeste 0 1019.8 1.6 73
2020-01-14 21:00:00 18.1 0 Calma 17 Sur 0 1018.9 0.8 71
2020-01-14 20:00:00 18.7 11 Sur 24 Sur 0 1018.9 0.5 68
2020-01-14 19:00:00 18.7 16 Sudeste 26 Sur 0 1018.2 0.2 73
2020-01-14 18:00:00 19.3 16 Sudeste 23 Sur 0 1018.1 0.1 74
2020-01-14 17:00:00 20.2 13 Sur 21 Sur 0 1018.4 -0.2 68
2020-01-14 16:00:00 20.2 15 Sur 21 Sur 0 1018 -1.3 66
2020-01-14 15:00:00 20.4 15 Sur 24 Sur 0 1018 -2.1 67
2020-01-14 14:00:00 20.2 18 Sur 27 Sur 0 1018.6 -1.8 71
2020-01-14 13:00:00 20.1 21 Sur 30 Sudeste 0 1019.3 -0.4 71
2020-01-14 12:00:00 20.1 23 Sur 32 Sur 0 1020.1 0.9 71
2020-01-14 11:00:00 20.1 22 Sudeste 32 Sudeste 0 1020.4 1.6 72
2020-01-14 10:00:00 19.8 18 Sudeste 28 Sudeste 0 1019.7 1.2 80
2020-01-14 09:00:00 19.3 18 Sudeste 32 Sur 0 1019.2 1.6 83
2020-01-14 08:00:00 18.9 13 Sudeste 30 Sudeste 0 1018.8 1.4 86
2020-01-14 07:00:00 18.8 10 Sur 22 Sur 0 1018.5 0.9 81
2020-01-14 06:00:00 18.8 10 Sur 19 Sur 0 1017.6 -0.4 75
2020-01-14 05:00:00 17.1 6 Norte 16 Oeste 0 1017.4 -1.1 64
2020-01-14 04:00:00 16.9 5 Noroeste 14 Noroeste 0 1017.6 -1.3 64
2020-01-14 03:00:00 16.5 4 Noroeste 14 Sudoeste 0 1018 -1.5 73
2020-01-14 02:00:00 18.3 8 Sur 15 Sur 0 1018.5 -1.4 79
2020-01-14 01:00:00 18.3 4 Sudoeste 23 Sudeste 0 1018.9 -1.3 85
2020-01-14 00:00:00 18.8 10 Sur 26 Sur 0 1019.5 -0.5 86
2020-01-13 23:00:00 18.8 15 Sudeste 24 Sur 0 1019.9 0.2 84
2020-01-13 22:00:00 18.8 14 Sudeste 22 Sudeste 0 1020.2 0.9 86
2020-01-13 21:00:00 18.8 14 Sudeste 26 Sur 0 1020 0.8 84
2020-01-13 20:00:00 18.9 14 Sudeste 24 Sudeste 0 1019.7 0.6 84
2020-01-13 19:00:00 18.9 12 Sudeste 21 Sur 0 1019.3 0.3 86
2020-01-13 18:00:00 19.2 10 Sudeste 15 Sur 0 1019.2 0 84
2020-01-13 17:00:00 19.6 10 Sudeste 17 Sudeste 0 1019.1 -0.5 86
2020-01-13 16:00:00 20.1 12 Sudeste 21 Sudeste 0 1019 -- 80
2020-01-13 15:00:00 21 7 Sur 18 Sudeste 0 1019.2 -2.3 70
2020-01-13 14:00:00 20.4 10 Sur 16 Sudeste 0 1019.6 -2.2 74
2020-01-13 13:00:00 -- 11 Sudeste 17 Sur 0 -- -- --
2020-01-13 12:00:00 19.9 10 Sur 16 Sur 0 1021.5 0.1 69
2020-01-13 11:00:00 20.1 7 Sudeste 10 Sur 0 1021.8 1 66
2020-01-13 10:00:00 18.8 5 Noroeste 12 Nordeste 0 1021.7 1.2 56
2020-01-13 09:00:00 16.2 5 Norte 12 Noroeste 0 1021.4 1.4 60
2020-01-13 08:00:00 15.8 9 Noroeste 14 Noroeste 0 1020.8 0.9 59
2020-01-13 07:00:00 15.5 8 Noroeste 14 Noroeste 0 1020.5 0.3 57
2020-01-13 06:00:00 16.3 6 Norte 21 Norte 0 1020 -1 55
2020-01-13 05:00:00 16.2 9 Noroeste 17 Noroeste 0 1019.9 -1.2 59
2020-01-13 04:00:00 15.9 8 Noroeste 17 Norte 0 1020.2 -1.3 67
2020-01-13 03:00:00 15.5 8 Noroeste 14 Noroeste 0 1021 -0.7 78
2020-01-13 02:00:00 16.5 9 Noroeste 13 Noroeste 0 1021.1 -0.9 80
2020-01-13 01:00:00 17.3 8 Noroeste 13 Noroeste 0 1021.5 -0.7 79
2020-01-13 00:00:00 17.6 8 Noroeste 16 Noroeste 0 1021.7 -0.3 80
2020-01-12 23:00:00 18.4 6 Noroeste 11 Noroeste 0 1022 0.3 80
2020-01-12 22:00:00 18.6 3 Noroeste 14 Noroeste 0 1022.2 0.6 78
2020-01-12 21:00:00 18.5 6 Noroeste 13 Nordeste 0 1022 -0.1 81
2020-01-12 20:00:00 18.7 9 Noroeste 21 Noroeste 0 1021.7 0.2 79
2020-01-12 19:00:00 18.7 9 Noroeste 21 Norte 0 1021.6 0.2 77
2020-01-12 18:00:00 18.9 9 Noroeste 33 Noroeste 0 1022.1 0.6 72
2020-01-12 17:00:00 19.2 9 Norte 29 Noroeste 0 1021.5 -0.5 74
2020-01-12 16:00:00 19.5 11 Noroeste 29 Noroeste 0 1021.4 -0.9 73
2020-01-12 15:00:00 19.3 16 Noroeste 28 Noroeste 0 1021.5 -1.8 75
2020-01-12 14:00:00 20.6 4 Sudeste 17 Sur 0 1022 -2 69
2020-01-12 13:00:00 19.8 10 Sur 17 Sur 0 1022.3 -1.4 73
2020-01-12 12:00:00 20.2 9 Sudeste 15 Oeste 0 1023.3 0.3 71
2020-01-12 11:00:00 20.7 5 Nordeste 22 Este 0 1024 1.4 70
2020-01-12 10:00:00 19.4 8 Norte 23 Norte 0 1023.7 1.5 72
2020-01-12 09:00:00 18.5 9 Norte 23 Oeste 0 1023 1.7 74
2020-01-12 08:00:00 18 12 Noroeste 33 Norte 0 1022.6 0.8 77
2020-01-12 07:00:00 18 13 Noroeste 42 Norte 0 1022.2 0.1 77
2020-01-12 06:00:00 17.9 17 Noroeste 43 Norte 0 1021.3 -1.9 77
2020-01-12 05:00:00 18 15 Norte 36 Norte 0 1021.8 -1.5 73
2020-01-12 04:00:00 18.1 16 Noroeste 33 Norte 0 1022.1 -1.5 74
2020-01-12 03:00:00 18.3 9 Noroeste 29 Oeste 0 1023.2 -1 74
2020-01-12 02:00:00 18 13 Noroeste 32 Noroeste 0 1023.3 -0.9 77
2020-01-12 01:00:00 17.7 11 Norte 35 Noroeste 0 1023.6 -0.1 80
2020-01-12 00:00:00 18.1 11 Noroeste 35 Noroeste 0 1024.2 0.6 77
2020-01-11 23:00:00 17.9 15 Noroeste 39 Noroeste 0 1024.2 0.9 81
2020-01-11 22:00:00 18.1 13 Norte 35 Noroeste 0 1023.7 0.8 80
2020-01-11 21:00:00 17.9 12 Norte 41 Norte 0 1023.6 1.6 83
2020-01-11 20:00:00 18.4 12 Noroeste 39 Noroeste 0 1023.3 0.9 76
2020-01-11 19:00:00 18.1 14 Norte 43 Norte 0 1022.9 0.2 81
2020-01-11 18:00:00 18.8 15 Norte 45 Noroeste 0 1022 -1 72
2020-01-11 17:00:00 19.3 10 Noroeste 40 Norte 0 1022.4 -0.9 71
2020-01-11 16:00:00 19.7 14 Norte 42 Nordeste 0 1022.7 -1.7 74
2020-01-11 15:00:00 19.8 12 Norte 40 Nordeste 0 1023 -2.5 77
2020-01-11 14:00:00 20.6 10 Norte 33 Nordeste 0 1023.3 -2.5 67
2020-01-11 13:00:00 20.8 6 Noroeste 41 Noroeste 0 1024.4 -0.9 65
2020-01-11 12:00:00 19.6 11 Norte 38 Noroeste 0 1025.5 1 70
2020-01-11 11:00:00 19.6 14 Norte 38 Oeste 0 1025.8 1.8 70
2020-01-11 10:00:00 19.2 10 Norte 40 Norte 0 1025.3 1.6 72
2020-01-11 09:00:00 18.2 12 Noroeste 41 Noroeste 0 1024.5 1.1 76
2020-01-11 08:00:00 17.9 15 Noroeste 32 Norte 0 1024 0.6 77
2020-01-11 07:00:00 18.2 17 Norte 51 Noroeste 0 1023.7 -0.1 81
2020-01-11 06:00:00 18.6 16 Noroeste 43 Noroeste 0 1023.4 -0.5 80
2020-01-11 05:00:00 18.7 17 Norte 41 Noroeste 0 1023.4 -0.6 83
2020-01-11 04:00:00 18.7 14 Noroeste 45 Norte 0 1023.8 -0.7 86
2020-01-11 03:00:00 18.7 18 Noroeste 44 Norte 0 1023.9 -1.2 85
2020-01-11 02:00:00 18.6 19 Norte 48 Norte 0 1024 -1.2 86
2020-01-11 01:00:00 18.8 14 Noroeste 44 Noroeste 0 1024.5 -0.7 83
2020-01-11 00:00:00 19.1 15 Noroeste 41 Noroeste 0 1025.1 0 82
2020-01-10 23:00:00 19.1 15 Noroeste 41 Nordeste 0 1025.2 0.3 81
2020-01-10 22:00:00 19.1 17 Norte 41 Oeste 0 1025.2 0.3 81
2020-01-10 21:00:00 19.4 16 Noroeste 40 Noroeste 0 1025.1 0.4 79
2020-01-10 20:00:00 19.1 14 Noroeste 40 Norte 0 1024.9 0.5 83
2020-01-10 19:00:00 19.3 13 Norte 49 Noroeste 0 1024.9 0.7 83
2020-01-10 18:00:00 19.6 18 Noroeste 42 Noroeste 0 1024.7 0.4 84
2020-01-10 17:00:00 19.8 16 Noroeste 45 Norte 0 1024.4 -0.7 83
2020-01-10 16:00:00 20.6 17 Noroeste 43 Oeste 0 1024.2 -1.6 80
2020-01-10 15:00:00 20.7 19 Noroeste 50 Oeste 0 1024.3 -2.3 76
2020-01-10 14:00:00 20.8 19 Noroeste 48 Norte 0 1025.1 -2 80
2020-01-10 13:00:00 20.4 15 Noroeste 41 Nordeste 0 1025.8 -0.7 85
2020-01-10 12:00:00 21.2 6 Norte 29 Nordeste 0 1026.6 0.8 80
2020-01-10 11:00:00 20.3 16 Norte 37 Norte 0 1027.1 1.9 84
2020-01-10 10:00:00 19.7 17 Noroeste 38 Noroeste 0 1026.5 1.6 85
2020-01-10 09:00:00 19.1 10 Noroeste 30 Noroeste 0 1025.8 1.4 80
2020-01-10 08:00:00 18.6 10 Norte 33 Noroeste 0 1025.2 0.3 81
2020-01-10 07:00:00 18.6 19 Norte 46 Norte 0 1024.9 -0.4 83
2020-01-10 06:00:00 18.6 18 Norte 45 Noroeste 0 1024.4 -0.8 83
2020-01-10 05:00:00 19 20 Norte 48 Norte 0 1024.9 -0.6 79
2020-01-10 04:00:00 18.7 25 Noroeste 55 Noroeste 0 1025.3 -0.7 79
2020-01-10 03:00:00 18.9 22 Norte 55 Noroeste 0 1025.2 -0.9 74
2020-01-10 02:00:00 18.7 22 Norte 50 Noroeste 0 1025.5 -1.1 73
2020-01-10 01:00:00 18.7 19 Norte 51 Nordeste 0 1026 -0.1 71
2020-01-10 00:00:00 18.8 20 Noroeste 49 Norte 0 1026.1 -0.5 71
2020-01-09 23:00:00 18.8 23 Norte 62 Norte 0 1026.6 0.9 72
2020-01-09 22:00:00 18.7 23 Norte 70 Noroeste 0 1026.1 0.5 73
2020-01-09 21:00:00 18.6 19 Norte 58 Noroeste 0 1026.6 0.9 73
2020-01-09 20:00:00 18.7 24 Noroeste 64 Nordeste 0 1025.7 0.1 77
2020-01-09 19:00:00 18.9 19 Norte 51 Noroeste 0 1025.6 0.5 71
2020-01-09 18:00:00 19.1 17 Norte 47 Nordeste 0 1025.7 0.3 74
2020-01-09 17:00:00 20 15 Norte 45 Noroeste 0 1025.6 -0.4 68
2020-01-09 16:00:00 20.9 14 Norte 37 Oeste 0 1025.1 -1.4 68
2020-01-09 15:00:00 20.6 14 Noroeste 48 Noroeste 0 1025.4 -1.5 69
2020-01-09 14:00:00 20.3 16 Norte 48 Nordeste 0 1026 -1.7 72
2020-01-09 13:00:00 20.7 18 Norte 45 Norte 0 1026.5 -0.6 69
2020-01-09 12:00:00 20 18 Norte 43 Noroeste 0 1026.9 0.6 68
2020-01-09 11:00:00 19.8 17 Norte 36 Nordeste 0 1027.7 2.4 71
2020-01-09 10:00:00 19.3 13 Norte 41 Nordeste 0 1027.1 1.9 77
2020-01-09 09:00:00 18.4 17 Norte 40 Norte 0 1026.3 1.2 78
2020-01-09 08:00:00 18 17 Norte 44 Norte 0 1025.3 0.6 82
2020-01-09 07:00:00 18 14 Norte 39 Norte 0 1025.2 0 81
2020-01-09 06:00:00 18.1 17 Norte 39 Norte 0 1025.1 -0.6 79
2020-01-09 05:00:00 18 18 Norte 43 Noroeste 0 1024.7 -1.1 73
2020-01-09 04:00:00 18.1 14 Noroeste 41 Norte 0 1025.2 -0.2 74
2020-01-09 03:00:00 18.1 13 Noroeste 33 Norte 0 1025.7 -0.2 75
2020-01-09 02:00:00 18.2 12 Norte 43 Noroeste 0 1025.8 -0.5 74
2020-01-09 01:00:00 18.3 17 Norte 41 Noroeste 0 1025.4 -0.3 74
2020-01-09 00:00:00 18.3 13 Noroeste 34 Oeste 0 1025.9 -0.2 71
2020-01-08 23:00:00 18.6 13 Norte 47 Noroeste 0 1026.3 0.4 68
2020-01-08 22:00:00 18.5 15 Norte 40 Noroeste 0 1025.7 0.4 74
2020-01-08 21:00:00 18.4 9 Noroeste 34 Norte 0 1026.1 0.9 74
2020-01-08 20:00:00 18.6 9 Norte 34 Nordeste 0 1025.9 0.9 77
2020-01-08 19:00:00 18.7 14 Norte 39 Norte 0 1025.3 0.6 76
2020-01-08 18:00:00 19.1 13 Noroeste 41 Noroeste 0 1025.2 0.6 74
2020-01-08 17:00:00 20.3 11 Noroeste 40 Noroeste 0 1025 0.2 71
2020-01-08 16:00:00 20.5 12 Noroeste 42 Oeste 0 1024.7 -0.8 71
2020-01-08 15:00:00 21 8 Noroeste 40 Noroeste 0 1024.6 -1.4 69
2020-01-08 14:00:00 20.7 15 Noroeste 39 Noroeste 0 1024.8 -1.7 71
2020-01-08 13:00:00 21.4 10 Norte 42 Nordeste 0 1025.5 -0.8 70
2020-01-08 12:00:00 21 10 Norte 32 Norte 0 1026 0.7 71
2020-01-08 11:00:00 20.4 8 Norte 28 Noroeste 0 1026.5 1.9 71
2020-01-08 10:00:00 19.8 8 Norte 42 Noroeste 0 1026.3 2 76
2020-01-08 09:00:00 18.3 11 Norte 37 Noroeste 0 1025.3 1.4 81
2020-01-08 08:00:00 18 14 Noroeste 38 Noroeste 0 1024.6 0.6 80
2020-01-08 07:00:00 18.1 14 Norte 35 Norte 0 1024.3 -0.2 77
2020-01-08 06:00:00 17.9 16 Norte 43 Norte 0 1023.9 -0.9 79
2020-01-08 05:00:00 18.1 21 Noroeste 41 Noroeste 0 1024 -0.7 77
2020-01-08 04:00:00 18 11 Noroeste 30 Noroeste 0 1024.5 -0.6 78
2020-01-08 03:00:00 18.2 13 Noroeste 32 Noroeste 0 1024.8 -0.6 80
2020-01-08 02:00:00 18.3 15 Norte 31 Oeste 0 1024.7 -0.8 76
2020-01-08 01:00:00 17.5 9 Noroeste 15 Noroeste 0 1025.1 -0.1 71
2020-01-08 00:00:00 18.3 7 Noroeste 24 Noroeste 0 1025.4 0.5 72
2020-01-07 23:00:00 18.8 15 Noroeste 36 Norte 0 1025.5 1.1 70
2020-01-07 22:00:00 18.8 14 Norte 33 Norte 0 1025.2 1.2 69
2020-01-07 21:00:00 18.9 12 Noroeste 31 Oeste 0 1024.9 1.2 74
2020-01-07 20:00:00 19.1 11 Noroeste 28 Oeste 0 1024.4 1.1 74
2020-01-07 19:00:00 19.4 7 Noroeste 17 Oeste 0 1024 0.7 71
2020-01-07 18:00:00 20.1 0 Calma 16 Sur 0 1023.7 0.5 66
2020-01-07 17:00:00 20.8 8 Sudeste 20 Sudeste 0 1023.3 -0.2 66
2020-01-07 16:00:00 20.8 11 Sudeste 19 Sudeste 0 1023.3 -0.8 74
2020-01-07 15:00:00 20.6 10 Nordeste 33 Noroeste 0 1023.2 -1.7 66
2020-01-07 14:00:00 20.7 14 Noroeste 32 Oeste 0 1023.5 -2.1 66
2020-01-07 13:00:00 21.2 7 Noroeste 28 Noroeste 0 1024.1 -0.8 64
2020-01-07 12:00:00 20.8 6 Oeste 18 Sudeste 0 1024.9 1 69
2020-01-07 11:00:00 19.2 6 Sudeste 26 Norte 0 1025.6 2.3 75
2020-01-07 10:00:00 19 9 Norte 29 Oeste 0 1024.9 2.2 74
2020-01-07 09:00:00 18.6 11 Noroeste 33 Oeste 0 1023.9 2.6 71
2020-01-07 08:00:00 17.8 10 Noroeste 27 Nordeste 0 1023.3 2 70
2020-01-07 07:00:00 18.4 12 Norte 47 Norte 0 1022.7 1.3 66
2020-01-07 06:00:00 18.6 18 Noroeste 44 Noroeste 0 1021.3 -0.1 61
2020-01-07 05:00:00 18.7 15 Noroeste 36 Norte 0 1021.3 -1 66
2020-01-07 04:00:00 18.5 19 Norte 60 Noroeste 0 1021.4 -1.2 77
2020-01-07 03:00:00 18.4 19 Norte 45 Noroeste 0 1021.4 -1.5 77
2020-01-07 02:00:00 18.5 16 Noroeste 47 Noroeste 0 1022.3 -0.8 75
2020-01-07 01:00:00 18.3 17 Norte 56 Norte 0 1022.6 -0.7 77
2020-01-07 00:00:00 18.5 23 Norte 54 Noroeste 0 1022.9 -0.2 77
2020-01-06 23:00:00 17.9 18 Norte 49 Norte 0 1023.1 0.2 87
2020-01-06 22:00:00 18.7 18 Norte 53 Norte 0 1023.3 0.7 81
2020-01-06 21:00:00 18.5 17 Norte 44 Norte 0 1023.1 0.9 79
2020-01-06 20:00:00 18.7 17 Norte 54 Nordeste 0 1022.9 0.5 77
2020-01-06 19:00:00 19 16 Norte 50 Noroeste 0 1022.6 0.5 76
2020-01-06 18:00:00 19.1 16 Norte 49 Noroeste 0 1022.2 0.1 75
2020-01-06 17:00:00 19.9 16 Norte 55 Noroeste 0 1022.4 -0.5 70
2020-01-06 16:00:00 20.4 19 Norte 51 Norte 0 1022.1 -1.9 67
2020-01-06 15:00:00 20.6 14 Norte 41 Nordeste 0 1022.1 -2 63
2020-01-06 14:00:00 21.2 12 Norte 56 Nordeste 0 1022.9 -2.1 54
2020-01-06 13:00:00 21.4 12 Norte 50 Norte 0 1024 -1.3 53
2020-01-06 12:00:00 20.8 18 Norte 44 Norte 0 1024.1 -0.4 56
2020-01-06 11:00:00 20.8 13 Noroeste 35 Oeste 0 1025 0.9 63
2020-01-06 10:00:00 19.6 10 Noroeste 33 Noroeste 0 1025.3 0.9 77
2020-01-06 09:00:00 18.2 13 Norte 35 Noroeste 0 1024.5 0.4 80